createdAt,value
2018-12-17T00:01:47.691Z,23.60
2018-12-17T00:04:16.742Z,25.77
2018-12-17T00:06:45.647Z,26.83
2018-12-17T00:09:14.777Z,24.63
2018-12-17T00:11:43.999Z,25.00
2018-12-17T00:14:12.880Z,23.53
2018-12-17T00:16:41.948Z,24.27
2018-12-17T00:19:11.864Z,24.83
2018-12-17T00:21:41.015Z,23.63
2018-12-17T00:24:09.935Z,22.90
2018-12-17T00:26:38.833Z,25.23
2018-12-17T00:29:07.881Z,26.97
2018-12-17T00:31:37.210Z,24.53
2018-12-17T00:34:06.173Z,24.27
2018-12-17T00:36:35.091Z,24.70
2018-12-17T00:39:07.183Z,24.10
2018-12-17T00:41:36.551Z,25.20
2018-12-17T00:44:05.805Z,26.30
2018-12-17T00:46:34.825Z,24.60
2018-12-17T00:49:03.770Z,26.87
2018-12-17T00:51:32.902Z,24.47
2018-12-17T00:54:01.922Z,25.77
2018-12-17T00:56:30.852Z,25.30
2018-12-17T00:58:59.812Z,24.27
2018-12-17T01:01:28.686Z,26.83
2018-12-17T01:03:57.599Z,26.97
2018-12-17T01:06:26.565Z,27.33
2018-12-17T01:08:55.515Z,26.70
2018-12-17T01:11:24.377Z,28.03
2018-12-17T01:13:53.418Z,28.77
2018-12-17T01:16:22.401Z,27.40
2018-12-17T01:18:51.433Z,28.27
2018-12-17T01:21:20.993Z,28.50
2018-12-17T01:23:50.426Z,26.73
2018-12-17T01:26:20.983Z,27.13
2018-12-17T01:28:50.292Z,29.57
2018-12-17T01:31:19.264Z,28.10
2018-12-17T01:33:48.806Z,27.57
2018-12-17T01:36:17.810Z,30.67
2018-12-17T01:38:46.859Z,28.57
2018-12-17T01:41:15.984Z,29.63
2018-12-17T01:43:45.242Z,27.47
2018-12-17T01:46:14.186Z,27.43
2018-12-17T01:48:43.880Z,29.70
2018-12-17T01:51:12.877Z,28.10
2018-12-17T01:53:41.777Z,27.70
2018-12-17T01:56:10.795Z,26.73
2018-12-17T01:58:39.727Z,27.23
2018-12-17T02:01:08.674Z,26.97
2018-12-17T02:03:37.675Z,27.40
2018-12-17T02:06:06.818Z,28.40
2018-12-17T02:08:35.959Z,26.67
2018-12-17T02:11:05.252Z,28.10
2018-12-17T02:13:34.287Z,26.03
2018-12-17T02:16:03.178Z,27.07
2018-12-17T02:18:32.194Z,27.20
2018-12-17T02:21:01.371Z,28.50
2018-12-17T02:23:30.570Z,28.77
2018-12-17T02:25:59.517Z,29.63
2018-12-17T02:28:28.467Z,27.37
2018-12-17T02:30:57.379Z,28.20
2018-12-17T02:33:26.605Z,28.73
2018-12-17T02:35:55.537Z,28.93
2018-12-17T02:38:24.527Z,30.40
2018-12-17T02:40:53.443Z,29.03
2018-12-17T02:43:22.423Z,30.53
2018-12-17T02:45:51.928Z,31.60
2018-12-17T02:48:20.850Z,30.77
2018-12-17T02:50:49.801Z,30.83
2018-12-17T02:53:18.670Z,28.53
2018-12-17T02:55:48.118Z,28.33
2018-12-17T02:58:17.092Z,28.27
2018-12-17T03:00:46.143Z,28.60
2018-12-17T03:03:15.148Z,29.80
2018-12-17T03:05:44.634Z,31.10
2018-12-17T03:08:13.646Z,30.03
2018-12-17T03:10:42.650Z,30.87
2018-12-17T03:13:11.949Z,30.07
2018-12-17T03:15:40.846Z,30.23
2018-12-17T03:18:09.721Z,30.57
2018-12-17T03:20:39.243Z,30.37
2018-12-17T03:23:08.539Z,30.43
2018-12-17T03:25:37.461Z,29.90
2018-12-17T03:28:06.643Z,29.53
2018-12-17T03:30:35.664Z,31.67
2018-12-17T03:33:04.617Z,32.10
2018-12-17T03:35:33.677Z,33.17
2018-12-17T03:38:02.591Z,32.97
2018-12-17T03:40:31.679Z,32.47
2018-12-17T03:43:00.601Z,33.77
2018-12-17T03:45:29.549Z,33.10
2018-12-17T03:47:58.528Z,29.67
2018-12-17T03:50:27.470Z,32.23
2018-12-17T03:52:56.538Z,31.50
2018-12-17T03:55:25.453Z,33.13
2018-12-17T03:57:54.712Z,31.73
2018-12-17T04:00:23.876Z,32.33
2018-12-17T04:02:53.102Z,30.93
2018-12-17T04:05:22.690Z,30.60
2018-12-17T04:07:51.607Z,31.60
2018-12-17T04:10:20.569Z,31.20
2018-12-17T04:12:49.786Z,31.67
2018-12-17T04:15:18.786Z,29.23
2018-12-17T04:17:47.711Z,31.97
2018-12-17T04:20:16.720Z,31.70
2018-12-17T04:22:45.645Z,29.73
2018-12-17T04:25:14.652Z,31.37
2018-12-17T04:27:43.731Z,29.93
2018-12-17T04:30:13.042Z,31.73
2018-12-17T04:32:42.020Z,31.30
2018-12-17T04:35:11.008Z,33.60
2018-12-17T04:37:40.425Z,33.10
2018-12-17T04:40:09.306Z,33.30
2018-12-17T04:42:38.282Z,32.50
2018-12-17T04:45:09.112Z,33.77
2018-12-17T04:47:37.999Z,31.97
2018-12-17T04:50:07.030Z,32.27
2018-12-17T04:52:35.970Z,33.33
2018-12-17T04:55:05.420Z,31.63
2018-12-17T04:57:34.491Z,33.27
2018-12-17T05:00:03.921Z,33.13
2018-12-17T05:02:32.900Z,31.87
2018-12-17T05:05:01.824Z,32.40
2018-12-17T05:07:31.068Z,33.53
2018-12-17T05:10:00.263Z,32.27
2018-12-17T05:12:33.567Z,35.40
2018-12-17T05:15:03.788Z,33.13
2018-12-17T05:17:32.926Z,33.20
2018-12-17T05:20:01.939Z,32.17
2018-12-17T05:22:31.259Z,33.63
2018-12-17T05:25:00.444Z,32.50
2018-12-17T05:27:29.867Z,34.77
2018-12-17T05:29:58.844Z,33.23
2018-12-17T05:32:27.718Z,33.27
2018-12-17T05:34:56.673Z,32.47
2018-12-17T05:37:25.922Z,33.53
2018-12-17T05:39:55.088Z,32.63
2018-12-17T05:42:23.964Z,33.53
2018-12-17T05:44:53.075Z,34.20
2018-12-17T05:47:22.127Z,32.60
2018-12-17T05:49:51.031Z,35.27
2018-12-17T05:52:20.294Z,33.67
2018-12-17T05:54:49.537Z,33.70
2018-12-17T05:57:18.522Z,34.17
2018-12-17T05:59:47.453Z,32.40
2018-12-17T06:02:16.439Z,34.90
2018-12-17T06:04:45.470Z,33.37
2018-12-17T06:07:14.340Z,32.77
2018-12-17T06:09:43.410Z,33.87
2018-12-17T06:12:12.387Z,36.23
2018-12-17T06:14:41.367Z,35.23
2018-12-17T06:17:10.327Z,33.80
2018-12-17T06:19:39.249Z,31.43
2018-12-17T06:22:08.230Z,31.60
2018-12-17T06:24:37.348Z,31.03
2018-12-17T06:27:06.257Z,33.53
2018-12-17T06:29:35.681Z,31.33
2018-12-17T06:32:04.777Z,32.17
2018-12-17T06:34:33.736Z,34.27
2018-12-17T06:37:02.714Z,36.30
2018-12-17T06:39:32.196Z,33.20
2018-12-17T06:42:01.140Z,35.77
2018-12-17T06:44:30.047Z,33.67
2018-12-17T06:46:59.015Z,32.17
2018-12-17T06:49:28.962Z,32.90
2018-12-17T06:51:58.172Z,31.63
2018-12-17T06:54:27.570Z,34.93
2018-12-17T06:56:56.814Z,34.33
2018-12-17T06:59:25.780Z,35.30
2018-12-17T07:01:54.867Z,31.97
2018-12-17T07:04:23.888Z,32.50
2018-12-17T07:06:52.906Z,32.93
2018-12-17T07:09:21.900Z,33.93
2018-12-17T07:11:50.899Z,33.03
2018-12-17T07:14:20.141Z,30.27
2018-12-17T07:16:49.165Z,33.00
2018-12-17T07:19:18.119Z,29.87
2018-12-17T07:21:47.095Z,30.47
2018-12-17T07:24:16.656Z,31.83
2018-12-17T07:26:45.603Z,33.87
2018-12-17T07:29:14.517Z,30.57
2018-12-17T07:31:43.524Z,31.10
2018-12-17T07:34:12.457Z,34.07
2018-12-17T07:36:41.385Z,33.77
2018-12-17T07:39:10.240Z,30.87
2018-12-17T07:41:39.359Z,31.63
2018-12-17T07:44:08.279Z,31.60
2018-12-17T07:46:37.309Z,32.70
2018-12-17T07:49:06.215Z,33.50
2018-12-17T07:51:35.254Z,31.00
2018-12-17T07:54:05.195Z,31.47
2018-12-17T07:56:34.841Z,32.07
2018-12-17T07:59:03.857Z,33.67
2018-12-17T08:01:32.885Z,31.90
2018-12-17T08:04:01.787Z,31.77
2018-12-17T08:06:30.745Z,29.97
2018-12-17T08:09:00.012Z,30.33
2018-12-17T08:11:29.163Z,30.77
2018-12-17T08:13:58.057Z,31.00
2018-12-17T08:16:27.279Z,30.63
2018-12-17T08:18:57.148Z,29.43
2018-12-17T08:21:26.477Z,29.10
2018-12-17T08:23:55.561Z,29.93
2018-12-17T08:26:24.717Z,27.90
2018-12-17T08:28:53.623Z,28.47
2018-12-17T08:31:22.644Z,32.63
2018-12-17T08:33:51.724Z,33.00
2018-12-17T08:36:20.652Z,34.70
2018-12-17T08:38:49.578Z,36.07
2018-12-17T08:41:18.424Z,34.93
2018-12-17T08:43:47.380Z,31.27
2018-12-17T08:46:16.377Z,28.03
2018-12-17T08:48:45.283Z,29.97
2018-12-17T08:51:15.014Z,29.07
2018-12-17T08:53:43.929Z,30.20
2018-12-17T08:56:13.226Z,31.67
2018-12-17T08:58:42.209Z,30.53
2018-12-17T09:01:11.094Z,29.23
2018-12-17T09:03:40.194Z,31.47
2018-12-17T09:06:09.218Z,29.10
2018-12-17T09:08:38.436Z,29.93
2018-12-17T09:11:07.435Z,31.53
2018-12-17T09:13:36.348Z,28.97
2018-12-17T09:16:05.271Z,30.97
2018-12-17T09:18:34.184Z,29.53
2018-12-17T09:21:03.799Z,30.73
2018-12-17T09:23:32.724Z,33.03
2018-12-17T09:26:01.680Z,32.20
2018-12-17T09:28:30.578Z,33.00
2018-12-17T09:30:59.526Z,31.73
2018-12-17T09:33:28.760Z,31.83
2018-12-17T09:35:57.985Z,33.93
2018-12-17T09:38:27.252Z,33.03
2018-12-17T09:40:56.207Z,31.97
2018-12-17T09:43:26.027Z,32.87
2018-12-17T09:45:55.206Z,31.57
2018-12-17T09:48:24.295Z,33.50
2018-12-17T09:50:53.288Z,31.53
2018-12-17T09:53:22.138Z,29.97
2018-12-17T09:55:51.975Z,31.30
2018-12-17T09:58:20.949Z,29.07
2018-12-17T10:00:50.229Z,31.10
2018-12-17T10:03:19.156Z,31.50
2018-12-17T10:05:48.099Z,29.70
2018-12-17T10:08:17.061Z,27.87
2018-12-17T10:10:45.989Z,29.60
2018-12-17T10:13:14.940Z,30.47
2018-12-17T10:15:43.881Z,29.67
2018-12-17T10:18:13.816Z,31.30
2018-12-17T10:20:42.867Z,30.03
2018-12-17T10:23:11.800Z,27.43
2018-12-17T10:28:19.936Z,29.87
2018-12-17T10:30:48.801Z,29.33
2018-12-17T10:33:17.772Z,27.37
2018-12-17T10:35:46.810Z,28.37
2018-12-17T10:38:15.754Z,29.30
2018-12-17T10:40:45.027Z,27.80
2018-12-17T10:43:14.346Z,28.03
2018-12-17T10:45:43.345Z,26.90
2018-12-17T10:48:13.488Z,26.90
2018-12-17T10:50:42.337Z,26.57
2018-12-17T10:53:11.259Z,27.77
2018-12-17T10:55:40.176Z,27.50
2018-12-17T10:58:09.158Z,25.13
2018-12-17T11:00:43.752Z,27.63
2018-12-17T11:03:17.187Z,28.43
2018-12-17T11:05:46.783Z,28.83
2018-12-17T11:08:15.966Z,25.73
2018-12-17T11:10:44.998Z,24.23
2018-12-17T11:13:13.892Z,24.00
2018-12-17T11:15:42.773Z,23.87
2018-12-17T11:18:11.694Z,23.87
2018-12-17T11:20:40.998Z,23.67
2018-12-17T11:23:10.914Z,23.20
2018-12-17T11:25:39.825Z,22.53
2018-12-17T11:28:08.870Z,21.40
2018-12-17T11:30:37.840Z,21.33
2018-12-17T11:33:06.871Z,21.80
2018-12-17T11:35:35.826Z,20.90
2018-12-17T11:38:04.856Z,20.57
2018-12-17T11:40:33.850Z,21.60
2018-12-17T11:43:02.774Z,20.07
2018-12-17T11:45:31.670Z,19.13
2018-12-17T11:48:00.732Z,20.53
2018-12-17T11:50:29.671Z,19.73
2018-12-17T11:52:58.636Z,20.33
2018-12-17T11:55:27.687Z,20.87
2018-12-17T11:58:15.220Z,21.30
2018-12-17T12:01:03.824Z,20.23
2018-12-17T12:03:36.614Z,20.00
2018-12-17T12:06:05.902Z,20.30
2018-12-17T12:08:34.880Z,20.50
2018-12-17T12:11:04.145Z,19.73
2018-12-17T12:13:33.046Z,20.87
2018-12-17T12:16:02.106Z,20.63
2018-12-17T12:18:31.115Z,19.10
2018-12-17T12:21:00.062Z,19.60
2018-12-17T12:23:29.126Z,19.23
2018-12-17T12:25:58.125Z,18.70
2018-12-17T12:28:27.012Z,19.57
2018-12-17T12:31:00.444Z,20.27
2018-12-17T12:33:27.508Z,18.17
2018-12-17T12:35:58.448Z,18.73
2018-12-17T12:38:34.068Z,17.93
2018-12-17T12:41:04.033Z,18.10
2018-12-17T12:43:33.401Z,17.57
2018-12-17T12:46:02.768Z,18.00
2018-12-17T12:48:32.360Z,17.53
2018-12-17T12:51:02.939Z,17.10
2018-12-17T12:53:32.011Z,17.60
2018-12-17T12:56:01.505Z,19.37
2018-12-17T12:58:30.605Z,18.10
2018-12-17T13:01:07.383Z,16.97
2018-12-17T13:03:32.476Z,16.70
2018-12-17T13:06:02.054Z,17.47
2018-12-17T13:08:32.231Z,17.40
2018-12-17T13:11:01.216Z,17.20
2018-12-17T13:13:30.166Z,16.70
2018-12-17T13:15:59.337Z,16.67
2018-12-17T13:18:29.580Z,15.93
2018-12-17T13:20:59.534Z,15.63
2018-12-17T13:23:28.447Z,15.60
2018-12-17T13:25:57.575Z,16.43
2018-12-17T13:28:26.538Z,15.67
2018-12-17T13:30:55.895Z,16.40
2018-12-17T13:33:25.540Z,15.33
2018-12-17T13:35:55.048Z,14.43
2018-12-17T13:38:24.660Z,15.73
2018-12-17T13:40:55.630Z,15.63
2018-12-17T13:43:24.789Z,16.37
2018-12-17T13:45:53.874Z,16.73
2018-12-17T13:48:23.165Z,14.57
2018-12-17T13:50:52.107Z,15.53
2018-12-17T13:53:26.913Z,15.70
2018-12-17T13:55:56.583Z,14.97
2018-12-17T13:58:27.375Z,15.80
2018-12-17T14:00:56.279Z,14.80
2018-12-17T14:03:25.174Z,15.60
2018-12-17T14:05:54.322Z,15.60
2018-12-17T14:08:23.347Z,15.23
2018-12-17T14:10:54.054Z,15.07
2018-12-17T14:13:23.436Z,14.70
2018-12-17T14:15:57.816Z,14.97
2018-12-17T14:18:32.810Z,14.17
2018-12-17T14:21:07.403Z,14.87
2018-12-17T14:23:36.983Z,15.23
2018-12-17T14:26:07.261Z,14.90
2018-12-17T14:28:36.853Z,15.73
2018-12-17T14:31:06.398Z,14.97
2018-12-17T14:33:35.771Z,13.93
2018-12-17T14:36:08.536Z,14.87
2018-12-17T14:38:39.675Z,14.77
2018-12-17T14:41:10.197Z,14.97
2018-12-17T14:43:40.401Z,15.47
2018-12-17T14:46:09.558Z,14.40
2018-12-17T14:48:39.346Z,13.33
2018-12-17T14:51:09.404Z,13.83
2018-12-17T14:53:38.806Z,13.63
2018-12-17T14:56:08.680Z,13.43
2018-12-17T14:58:44.256Z,14.03
2018-12-17T15:01:08.892Z,14.77
2018-12-17T15:03:38.282Z,13.73
2018-12-17T15:06:07.212Z,14.13
2018-12-17T15:08:36.094Z,14.20
2018-12-17T15:11:05.391Z,13.53
2018-12-17T15:13:34.318Z,14.00
2018-12-17T15:16:03.199Z,13.73
2018-12-17T15:18:32.042Z,14.03
2018-12-17T15:21:01.257Z,13.70
2018-12-17T15:23:30.147Z,13.20
2018-12-17T15:25:59.487Z,13.57
2018-12-17T15:28:28.645Z,13.57
2018-12-17T15:30:57.726Z,13.30
2018-12-17T15:33:26.625Z,13.03
2018-12-17T15:35:55.962Z,13.33
2018-12-17T15:38:24.990Z,13.50
2018-12-17T15:40:53.961Z,12.63
2018-12-17T15:43:22.974Z,13.67
2018-12-17T15:45:51.896Z,12.47
2018-12-17T15:48:21.115Z,13.57
2018-12-17T15:50:50.517Z,14.53
2018-12-17T15:53:19.412Z,13.63
2018-12-17T15:55:48.645Z,14.00
2018-12-17T15:58:17.579Z,13.80
2018-12-17T16:00:46.588Z,14.70
2018-12-17T16:03:15.646Z,12.67
2018-12-17T16:05:44.546Z,13.10
2018-12-17T16:08:13.425Z,13.93
2018-12-17T16:10:42.496Z,13.70
2018-12-17T16:13:11.411Z,14.80
2018-12-17T16:15:40.382Z,13.30
2018-12-17T16:18:09.354Z,14.60
2018-12-17T16:20:38.317Z,13.53
2018-12-17T16:23:07.255Z,13.80
2018-12-17T16:25:36.210Z,14.27
2018-12-17T16:28:05.214Z,14.33
2018-12-17T16:30:34.104Z,15.47
2018-12-17T16:33:03.071Z,17.07
2018-12-17T16:35:31.991Z,16.27
2018-12-17T16:38:01.377Z,15.33
2018-12-17T16:40:30.808Z,15.27
2018-12-17T16:43:00.272Z,14.90
2018-12-17T16:45:29.170Z,15.10
2018-12-17T16:47:58.316Z,14.53
2018-12-17T16:50:27.248Z,14.97
2018-12-17T16:52:56.502Z,15.47
2018-12-17T16:55:25.496Z,15.93
2018-12-17T16:57:54.555Z,16.10
2018-12-17T17:00:23.462Z,14.63
2018-12-17T17:02:52.953Z,16.00
2018-12-17T17:05:22.027Z,16.87
2018-12-17T17:07:50.973Z,16.90
2018-12-17T17:10:20.304Z,17.93
2018-12-17T17:12:49.261Z,17.17
2018-12-17T17:15:18.233Z,17.37
2018-12-17T17:17:47.267Z,18.13
2018-12-17T17:20:16.427Z,18.20
2018-12-17T17:22:45.348Z,18.60
2018-12-17T17:25:14.303Z,17.93
2018-12-17T17:27:43.156Z,17.17
2018-12-17T17:30:12.306Z,17.17
2018-12-17T17:32:41.242Z,18.07
2018-12-17T17:35:10.209Z,19.33
2018-12-17T17:37:39.162Z,19.43
2018-12-17T17:40:08.317Z,20.03
2018-12-17T17:42:37.257Z,20.77
2018-12-17T17:45:06.683Z,20.03
2018-12-17T17:47:35.728Z,19.17
2018-12-17T17:50:05.524Z,20.30
2018-12-17T17:52:34.459Z,20.73
2018-12-17T17:55:03.574Z,22.10
2018-12-17T17:57:32.510Z,21.53
2018-12-17T18:00:01.736Z,23.37
2018-12-17T18:02:31.103Z,23.67
2018-12-17T18:05:00.558Z,25.73
2018-12-17T18:07:29.533Z,22.87
2018-12-17T18:09:58.416Z,24.87
2018-12-17T18:12:27.571Z,24.20
2018-12-17T18:14:56.876Z,25.40
2018-12-17T18:17:26.133Z,25.10
2018-12-17T18:19:55.340Z,25.10
2018-12-17T18:22:24.240Z,24.97
2018-12-17T18:24:53.348Z,24.17
2018-12-17T18:27:22.758Z,25.00
2018-12-17T18:29:51.806Z,27.70
2018-12-17T18:32:25.948Z,26.90
2018-12-17T18:34:51.766Z,26.03
2018-12-17T18:37:20.610Z,27.43
2018-12-17T18:39:49.510Z,28.37
2018-12-17T18:42:19.138Z,26.90
2018-12-17T18:44:48.151Z,25.97
2018-12-17T18:47:17.027Z,27.73
2018-12-17T18:49:45.978Z,27.43
2018-12-17T18:52:14.869Z,28.30
2018-12-17T18:54:44.189Z,27.67
2018-12-17T18:57:13.119Z,28.80
2018-12-17T18:59:42.022Z,27.97
2018-12-17T19:02:11.168Z,28.20
2018-12-17T19:04:40.093Z,28.90
2018-12-17T19:07:09.188Z,29.33
2018-12-17T19:09:38.434Z,27.87
2018-12-17T19:12:08.831Z,28.50
2018-12-17T19:14:37.754Z,30.80
2018-12-17T19:17:06.646Z,29.97
2018-12-17T19:19:36.443Z,29.60
2018-12-17T19:22:05.607Z,29.20
2018-12-17T19:24:34.553Z,29.87
2018-12-17T19:27:03.506Z,28.57
2018-12-17T19:29:32.400Z,32.33
2018-12-17T19:32:02.618Z,32.13
2018-12-17T19:34:31.641Z,31.80
2018-12-17T19:37:00.569Z,29.23
2018-12-17T19:39:29.906Z,29.70
2018-12-17T19:41:58.811Z,28.93
2018-12-17T19:44:29.112Z,30.07
2018-12-17T19:46:58.013Z,29.50
2018-12-17T19:49:26.966Z,29.77
2018-12-17T19:51:55.842Z,30.47
2018-12-17T19:54:24.820Z,128.20
2018-12-17T19:56:53.709Z,160.57
2018-12-17T19:59:22.677Z,32.77
2018-12-17T20:01:51.611Z,28.80
2018-12-17T20:04:20.508Z,29.07
2018-12-17T20:06:49.484Z,28.70
2018-12-17T20:09:19.184Z,28.13
2018-12-17T20:11:48.181Z,28.47
2018-12-17T20:14:17.687Z,28.47
2018-12-17T20:16:46.692Z,29.70
2018-12-17T20:19:15.613Z,28.90
2018-12-17T20:21:44.633Z,29.50
2018-12-17T20:24:13.824Z,27.33
2018-12-17T20:26:42.895Z,29.07
2018-12-17T20:29:12.705Z,28.50
2018-12-17T20:31:41.838Z,27.67
2018-12-17T20:34:11.819Z,28.43
2018-12-17T20:36:41.440Z,27.87
2018-12-17T20:39:10.403Z,26.83
2018-12-17T20:41:39.695Z,27.77
2018-12-17T20:44:09.416Z,27.50
2018-12-17T20:46:38.580Z,27.13
2018-12-17T20:49:08.428Z,27.30
2018-12-17T20:51:37.705Z,26.87
2018-12-17T20:54:06.690Z,26.30
2018-12-17T20:56:35.747Z,25.63
2018-12-17T20:59:04.671Z,27.27
2018-12-17T21:01:33.660Z,27.83
2018-12-17T21:04:02.838Z,26.70
2018-12-17T21:06:31.736Z,25.73
2018-12-17T21:09:00.630Z,27.33
2018-12-17T21:11:29.564Z,26.57
2018-12-17T21:13:58.552Z,24.70
2018-12-17T21:16:27.527Z,25.57
2018-12-17T21:18:56.543Z,26.77
2018-12-17T21:21:25.749Z,26.43
2018-12-17T21:23:54.611Z,24.30
2018-12-17T21:26:23.675Z,25.33
2018-12-17T21:28:52.601Z,26.63
2018-12-17T21:31:21.918Z,25.37
2018-12-17T21:33:50.970Z,24.97
2018-12-17T21:36:20.375Z,24.10
2018-12-17T21:38:49.374Z,24.67
2018-12-17T21:41:19.475Z,25.90
2018-12-17T21:43:48.383Z,23.73
2018-12-17T21:46:17.293Z,24.03
2018-12-17T21:48:46.560Z,23.93
2018-12-17T21:51:16.238Z,25.80
2018-12-17T21:53:45.164Z,23.50
2018-12-17T21:56:14.171Z,23.90
2018-12-17T21:58:43.846Z,24.97
2018-12-17T22:01:13.338Z,24.40
2018-12-17T22:03:42.643Z,22.77
2018-12-17T22:06:11.612Z,24.43
2018-12-17T22:08:40.452Z,24.43
2018-12-17T22:11:09.411Z,23.13
2018-12-17T22:13:38.660Z,23.77
2018-12-17T22:16:07.933Z,24.80
2018-12-17T22:18:37.232Z,24.53
2018-12-17T22:21:06.770Z,23.87
2018-12-17T22:23:37.340Z,22.50
2018-12-17T22:26:06.201Z,25.17
2018-12-17T22:28:35.204Z,22.60
2018-12-17T22:31:04.203Z,24.50
2018-12-17T22:33:33.108Z,24.47
2018-12-17T22:36:02.669Z,24.27
2018-12-17T22:38:31.580Z,23.40
2018-12-17T22:41:00.895Z,24.97
2018-12-17T22:43:29.800Z,22.97
2018-12-17T22:45:58.913Z,23.43
2018-12-17T22:48:28.231Z,24.30
2018-12-17T22:50:57.370Z,24.10
2018-12-17T22:53:26.294Z,22.43
2018-12-17T22:55:56.103Z,23.87
2018-12-17T22:58:24.983Z,22.80
2018-12-17T23:00:54.174Z,23.30
2018-12-17T23:03:26.316Z,22.77
2018-12-17T23:05:54.177Z,22.63
2018-12-17T23:08:23.051Z,23.83
2018-12-17T23:11:08.651Z,25.07
2018-12-17T23:13:54.269Z,23.43
2018-12-17T23:16:40.067Z,22.87
2018-12-17T23:19:07.107Z,22.47
2018-12-17T23:21:36.175Z,24.53
2018-12-17T23:24:05.620Z,23.67
2018-12-17T23:26:34.606Z,22.03
2018-12-17T23:29:03.978Z,23.07
2018-12-17T23:31:33.603Z,23.93
2018-12-17T23:34:02.657Z,23.27
2018-12-17T23:36:31.899Z,22.97
2018-12-17T23:39:00.806Z,22.57
2018-12-17T23:41:29.879Z,23.47
2018-12-17T23:43:58.975Z,24.73
2018-12-17T23:46:27.930Z,24.47
2018-12-17T23:48:57.155Z,24.93
2018-12-17T23:51:26.210Z,25.43
2018-12-17T23:53:55.105Z,26.10
2018-12-17T23:56:24.106Z,24.50
2018-12-17T23:58:53.019Z,26.27
